Time;durP1;ratioP1;P1;durP2;ratioP2;P2;SDS_P1;SDS_P2;PMS_P1;PMS_P2;Temp;Humidity;BMP_temperature;BMP_pressure;BME280_temperature;BME280_humidity;BME280_pressure;Samples;Min_cycle;Max_cycle;Signal;HPM_P1;HPM_P2
2022/05/26 00:02:06;;;;;;;0.63;0.63;;;16.60;99.90;;;;;;5036068;28;20029;-51
2022/05/26 00:04:31;;;;;;;4.70;0.57;;;16.50;99.90;;;;;;5034887;28;20155;-51
2022/05/26 00:06:58;;;;;;;2.00;0.40;;;16.40;99.90;;;;;;5036320;28;20064;-54
2022/05/26 00:09:24;;;;;;;1.25;0.50;;;16.40;99.90;;;;;;5034842;28;20033;-49
2022/05/26 00:11:50;;;;;;;0.30;0.30;;;16.30;99.90;;;;;;5034728;28;20028;-51
2022/05/26 00:14:15;;;;;;;2.03;0.52;;;16.30;99.90;;;;;;5035119;28;20029;-52
2022/05/26 00:16:43;;;;;;;1.85;0.50;;;16.30;99.90;;;;;;5035380;28;20021;-52
2022/05/26 00:19:10;;;;;;;0.25;0.25;;;16.20;99.90;;;;;;5035948;28;20431;-51
2022/05/26 00:21:36;;;;;;;0.50;0.47;;;16.30;99.90;;;;;;5034642;28;20032;-51
2022/05/26 00:24:02;;;;;;;3.30;0.20;;;16.20;99.90;;;;;;5035975;28;20049;-52
2022/05/26 00:26:28;;;;;;;2.25;0.40;;;16.20;99.90;;;;;;5035898;28;20033;-52
2022/05/26 00:28:55;;;;;;;1.95;0.40;;;16.20;99.90;;;;;;5034647;28;20103;-51
2022/05/26 00:31:21;;;;;;;1.08;0.40;;;16.20;99.90;;;;;;5035656;28;20033;-51
2022/05/26 00:33:47;;;;;;;0.80;0.40;;;16.20;99.90;;;;;;5034668;28;20029;-50
2022/05/26 00:36:15;;;;;;;0.32;0.30;;;16.20;99.90;;;;;;5035821;28;20037;-52
2022/05/26 00:38:41;;;;;;;0.70;0.38;;;16.20;99.90;;;;;;5035896;28;20092;-50
2022/05/26 00:41:12;;;;;;;2.92;0.30;;;16.20;99.90;;;;;;5034385;28;20036;-56
2022/05/26 00:43:42;;;;;;;0.43;0.32;;;16.20;99.90;;;;;;5035700;28;20029;-52
2022/05/26 00:46:22;;;;;;;1.38;0.40;;;16.20;99.90;;;;;;5034450;28;20071;-50
2022/05/26 00:48:56;;;;;;;0.30;0.30;;;16.20;99.90;;;;;;5035190;28;20030;-55
2022/05/26 00:51:31;;;;;;;2.53;0.45;;;16.20;99.90;;;;;;5034817;28;20026;-56
2022/05/26 00:54:03;;;;;;;2.38;0.63;;;16.20;99.90;;;;;;5035489;28;20073;-53
2022/05/26 00:56:56;;;;;;;0.77;0.43;;;16.20;99.90;;;;;;5035624;28;20135;-53
2022/05/26 00:59:28;;;;;;;4.15;0.40;;;16.10;99.90;;;;;;5006835;28;20032;-53
2022/05/26 01:01:55;;;;;;;1.88;0.60;;;16.10;99.90;;;;;;5034576;28;20026;-54
2022/05/26 01:04:24;;;;;;;2.05;0.40;;;16.10;99.90;;;;;;5035100;28;20085;-51
2022/05/26 01:07:07;;;;;;;0.93;0.50;;;16.10;99.90;;;;;;5033818;28;20029;-54
2022/05/26 01:09:33;;;;;;;1.90;0.30;;;16.10;99.90;;;;;;5034371;28;20025;-52
2022/05/26 01:11:58;;;;;;;1.98;0.57;;;16.10;99.90;;;;;;5034430;28;20052;-55
2022/05/26 01:14:32;;;;;;;1.08;0.47;;;16.10;99.90;;;;;;5033911;28;20083;-53
2022/05/26 01:17:27;;;;;;;1.33;0.70;;;16.20;99.90;;;;;;5033820;28;20030;-56
2022/05/26 01:20:18;;;;;;;1.85;0.47;;;16.10;99.90;;;;;;5034748;28;20028;-52
2022/05/26 01:23:08;;;;;;;3.05;0.40;;;16.10;99.90;;;;;;5033804;28;20030;-54
2022/05/26 01:25:52;;;;;;;2.53;0.70;;;16.00;99.90;;;;;;5035275;28;20025;-55
2022/05/26 01:28:24;;;;;;;2.47;1.52;;;16.00;99.90;;;;;;5034873;28;20114;-54
2022/05/26 01:30:59;;;;;;;0.82;0.75;;;16.00;99.90;;;;;;5034764;28;20026;-54
2022/05/26 01:33:42;;;;;;;2.10;0.50;;;16.00;99.90;;;;;;5034814;28;20392;-55
2022/05/26 01:36:13;;;;;;;0.70;0.60;;;16.00;99.90;;;;;;5033464;28;20103;-52
2022/05/26 01:38:53;;;;;;;1.50;0.38;;;16.00;99.90;;;;;;5035277;28;20032;-55
2022/05/26 01:41:24;;;;;;;1.08;0.38;;;16.00;99.90;;;;;;5033415;28;20086;-55
2022/05/26 01:44:19;;;;;;;1.98;0.57;;;16.10;99.90;;;;;;5033174;28;20479;-53
2022/05/26 01:46:45;;;;;;;5.53;0.70;;;16.10;99.90;;;;;;5030858;28;20029;-56
2022/05/26 01:49:33;;;;;;;0.70;0.40;;;16.10;99.90;;;;;;5033338;28;20026;-52
2022/05/26 01:52:10;;;;;;;1.35;0.40;;;16.10;99.90;;;;;;5034417;28;20029;-52
2022/05/26 01:54:49;;;;;;;0.98;0.50;;;16.00;99.90;;;;;;5033336;28;20045;-53
2022/05/26 01:57:47;;;;;;;0.50;0.40;;;16.00;99.90;;;;;;5033048;28;20106;-54
2022/05/26 02:00:16;;;;;;;5.68;0.55;;;15.80;99.90;;;;;;5033670;28;20030;-53
2022/05/26 02:02:50;;;;;;;4.13;0.40;;;15.80;99.90;;;;;;5033118;28;20018;-55
2022/05/26 02:05:20;;;;;;;1.17;0.52;;;15.70;99.90;;;;;;5034462;28;20029;-56
2022/05/26 02:07:54;;;;;;;3.67;0.60;;;15.60;99.90;;;;;;5033613;28;20041;-54
2022/05/26 02:10:42;;;;;;;0.40;0.40;;;15.50;99.90;;;;;;5032986;28;20026;-53
2022/05/26 02:13:11;;;;;;;2.25;0.60;;;15.40;99.90;;;;;;5032575;28;20033;-56
2022/05/26 02:15:47;;;;;;;1.73;0.60;;;15.40;99.90;;;;;;5033835;28;20026;-55
2022/05/26 02:18:25;;;;;;;0.38;0.38;;;15.40;99.90;;;;;;5033876;28;20052;-56
2022/05/26 02:20:57;;;;;;;1.00;0.65;;;15.30;99.90;;;;;;5032979;28;20079;-56
2022/05/26 02:23:40;;;;;;;0.75;0.50;;;15.30;99.90;;;;;;5032511;28;20025;-55
2022/05/26 02:26:07;;;;;;;0.30;0.30;;;15.30;99.90;;;;;;5033732;28;20029;-55
2022/05/26 02:31:21;;;;;;;5.53;0.35;;;15.30;99.90;;;;;;5033749;28;20510;-55
2022/05/26 02:33:47;;;;;;;0.32;0.32;;;15.30;99.90;;;;;;5033550;28;20036;-54
2022/05/26 02:36:13;;;;;;;0.40;0.40;;;15.20;99.90;;;;;;5032311;28;20018;-55
2022/05/26 02:38:39;;;;;;;1.65;0.43;;;15.20;99.90;;;;;;5033422;28;20105;-53
2022/05/26 02:41:05;;;;;;;6.85;0.50;;;15.10;99.90;;;;;;5032049;28;20025;-56
2022/05/26 02:43:33;;;;;;;1.70;0.73;;;15.00;99.90;;;;;;5032128;28;20022;-55
2022/05/26 02:46:17;;;;;;;1.10;0.50;;;15.00;99.90;;;;;;5032063;28;20029;-53
2022/05/26 02:48:45;;;;;;;0.77;0.43;;;14.90;99.90;;;;;;5033296;28;20033;-54
2022/05/26 02:51:24;;;;;;;0.55;0.30;;;14.80;99.90;;;;;;5033282;28;20029;-53
2022/05/26 02:54:14;;;;;;;6.28;0.88;;;14.80;99.90;;;;;;5033511;28;20305;-53
2022/05/26 02:56:58;;;;;;;4.88;0.50;;;14.70;99.90;;;;;;5032707;28;20032;-56
2022/05/26 02:59:51;;;;;;;1.75;0.45;;;14.70;99.90;;;;;;5031821;28;20070;-55
2022/05/26 03:02:28;;;;;;;0.40;0.40;;;14.60;99.90;;;;;;5031743;28;20036;-55
2022/05/26 03:05:07;;;;;;;3.25;0.70;;;14.60;99.90;;;;;;5031719;28;20103;-55
2022/05/26 03:07:35;;;;;;;0.70;0.40;;;14.70;99.90;;;;;;5031654;28;20029;-53
2022/05/26 03:10:05;;;;;;;1.88;0.45;;;14.70;99.90;;;;;;5031626;28;20392;-55
2022/05/26 03:12:33;;;;;;;1.65;0.73;;;14.70;99.90;;;;;;5031495;28;20029;-54
2022/05/26 03:14:59;;;;;;;1.65;0.30;;;14.80;99.90;;;;;;5031487;28;20389;-51
2022/05/26 03:17:25;;;;;;;0.82;0.50;;;14.70;99.90;;;;;;5033103;28;20021;-55
2022/05/26 03:19:51;;;;;;;0.57;0.32;;;14.70;99.90;;;;;;5031530;28;20075;-54
2022/05/26 03:22:17;;;;;;;0.55;0.47;;;14.70;99.90;;;;;;5031600;28;20025;-55
2022/05/26 03:24:42;;;;;;;0.52;0.40;;;14.70;99.90;;;;;;5032124;28;20468;-55
2022/05/26 03:27:08;;;;;;;0.70;0.43;;;14.70;99.90;;;;;;5031510;28;20029;-54
2022/05/26 03:29:34;;;;;;;0.43;0.43;;;14.70;99.90;;;;;;5031480;28;20388;-53
2022/05/26 03:32:00;;;;;;;1.15;0.65;;;14.60;99.90;;;;;;5031313;28;20037;-52
2022/05/26 03:42:40;;;;;;;1.77;0.50;;;14.50;99.90;;;;;;5032869;28;20112;-55
2022/05/26 03:45:07;;;;;;;1.52;0.30;;;14.40;99.90;;;;;;5031676;28;20030;-54
2022/05/26 03:47:33;;;;;;;3.75;0.73;;;14.40;99.90;;;;;;5032531;28;20108;-55
2022/05/26 03:49:58;;;;;;;0.38;0.32;;;14.40;99.90;;;;;;5032000;28;20061;-55
2022/05/26 03:52:24;;;;;;;1.65;0.47;;;14.50;99.90;;;;;;5031248;28;20068;-53
2022/05/26 03:54:50;;;;;;;1.30;0.25;;;14.60;99.90;;;;;;5031385;28;20026;-53
2022/05/26 03:57:27;;;;;;;3.20;0.50;;;14.80;99.90;;;;;;5031393;28;20026;-56
2022/05/26 03:59:52;;;;;;;0.38;0.35;;;14.80;99.90;;;;;;5031477;28;20100;-55
2022/05/26 04:02:18;;;;;;;3.53;0.45;;;15.00;99.90;;;;;;5031112;28;20112;-56
2022/05/26 04:04:44;;;;;;;1.13;0.52;;;15.10;99.90;;;;;;5032199;28;20129;-54
2022/05/26 04:07:10;;;;;;;0.60;0.30;;;15.20;99.90;;;;;;5031113;28;20022;-56
2022/05/26 04:09:36;;;;;;;1.25;0.40;;;15.30;99.90;;;;;;5031798;28;20116;-50
2022/05/26 04:12:03;;;;;;;0.95;0.40;;;15.40;99.90;;;;;;5031898;28;20121;-51
2022/05/26 04:14:28;;;;;;;2.92;0.40;;;15.50;99.90;;;;;;5030937;28;20049;-53
2022/05/26 04:16:54;;;;;;;0.20;0.20;;;15.60;99.90;;;;;;5032539;28;20025;-54
2022/05/26 04:19:19;;;;;;;1.85;0.50;;;15.90;99.90;;;;;;5030958;28;20037;-56
2022/05/26 04:24:29;;;;;;;1.90;0.32;;;16.50;99.90;;;;;;5032657;28;20064;-54
2022/05/26 04:26:55;;;;;;;1.75;0.43;;;16.80;99.90;;;;;;5030915;28;20093;-56
2022/05/26 04:29:23;;;;;;;0.55;0.20;;;17.10;99.90;;;;;;5031287;28;20032;-56
2022/05/26 04:31:50;;;;;;;0.43;0.43;;;17.40;99.90;;;;;;5032384;28;20029;-53
2022/05/26 04:34:16;;;;;;;1.17;0.25;;;17.70;99.90;;;;;;5035045;28;20013;-56
2022/05/26 04:36:42;;;;;;;0.45;0.45;;;17.90;99.90;;;;;;5034944;28;20071;-55
2022/05/26 04:39:08;;;;;;;1.73;0.20;;;18.00;99.90;;;;;;5035259;28;20021;-56
2022/05/26 04:41:33;;;;;;;0.35;0.35;;;18.20;99.90;;;;;;5036202;28;20163;-56
2022/05/26 04:43:59;;;;;;;2.40;0.57;;;18.40;99.90;;;;;;5035425;28;20048;-56
2022/05/26 04:46:25;;;;;;;1.15;0.28;;;18.70;99.90;;;;;;5034979;28;20128;-55
2022/05/26 04:48:51;;;;;;;0.98;0.30;;;18.90;99.90;;;;;;5034812;28;20025;-56
2022/05/26 04:51:16;;;;;;;2.10;0.40;;;19.20;99.90;;;;;;5035949;28;20032;-55
2022/05/26 04:53:42;;;;;;;0.50;0.30;;;19.40;99.90;;;;;;5034723;28;20025;-56
2022/05/26 04:56:08;;;;;;;1.58;0.40;;;19.60;99.90;;;;;;5034639;28;20056;-56
2022/05/26 04:58:33;;;;;;;0.98;0.30;;;20.00;99.90;;;;;;5034964;28;20021;-56
2022/05/26 05:00:59;;;;;;;2.03;0.30;;;20.40;99.90;;;;;;5035101;28;20052;-56
2022/05/26 05:03:25;;;;;;;0.45;0.35;;;20.70;99.90;;;;;;5034658;28;20043;-55
2022/05/26 05:05:50;;;;;;;1.45;0.32;;;21.00;99.90;;;;;;5035714;28;20068;-53
2022/05/26 05:08:16;;;;;;;0.90;0.30;;;21.10;99.90;;;;;;5034424;28;20061;-54
2022/05/26 05:10:41;;;;;;;0.22;0.20;;;20.90;99.90;;;;;;5035521;28;20396;-53
2022/05/26 05:13:09;;;;;;;2.30;0.40;;;20.90;99.90;;;;;;5034651;28;20025;-53
2022/05/26 05:15:44;;;;;;;1.17;0.28;;;20.90;99.90;;;;;;5035530;28;20017;-53
2022/05/26 05:18:09;;;;;;;5.15;0.40;;;21.20;99.90;;;;;;5035576;28;20052;-53
2022/05/26 05:20:35;;;;;;;0.35;0.22;;;21.50;99.90;;;;;;5034495;28;20029;-51
2022/05/26 05:23:06;;;;;;;2.83;0.50;;;22.00;99.90;;;;;;5035367;28;20021;-57
2022/05/26 05:25:39;;;;;;;0.57;0.38;;;22.20;99.90;;;;;;5034432;28;20028;-54
2022/05/26 05:28:23;;;;;;;3.13;0.38;;;22.10;99.90;;;;;;5035060;28;20075;-55
2022/05/26 05:30:54;;;;;;;1.55;0.55;;;21.80;99.90;;;;;;5035213;28;20013;-55
2022/05/26 05:33:25;;;;;;;0.30;0.20;;;21.80;99.90;;;;;;5035289;28;20036;-53
2022/05/26 05:35:54;;;;;;;0.43;0.40;;;21.60;99.90;;;;;;5035186;28;20021;-54
2022/05/26 05:38:20;;;;;;;1.52;0.43;;;21.40;99.90;;;;;;5033854;28;20033;-54
2022/05/26 05:40:46;;;;;;;0.88;0.60;;;21.40;99.90;;;;;;5035060;28;20017;-51
2022/05/26 05:43:12;;;;;;;1.05;0.30;;;21.50;99.90;;;;;;5034062;28;20022;-57
2022/05/26 05:45:39;;;;;;;1.75;0.63;;;21.70;99.90;;;;;;5033776;28;20026;-57
2022/05/26 05:48:05;;;;;;;0.70;0.52;;;21.80;99.90;;;;;;5033688;28;20391;-56
2022/05/26 05:50:31;;;;;;;2.08;0.30;;;22.00;99.90;;;;;;5033973;28;20049;-55
2022/05/26 05:52:58;;;;;;;1.45;0.50;;;22.50;99.90;;;;;;5034674;28;20033;-56
2022/05/26 05:55:24;;;;;;;1.95;0.40;;;23.20;99.90;;;;;;5033708;28;20502;-57
2022/05/26 05:57:50;;;;;;;1.60;0.70;;;23.80;99.90;;;;;;5033711;28;20076;-55
2022/05/26 06:00:16;;;;;;;1.65;0.40;;;24.10;99.90;;;;;;5034702;28;20049;-57
2022/05/26 06:02:41;;;;;;;1.42;0.30;;;24.40;99.90;;;;;;5033428;28;20061;-56
2022/05/26 06:05:08;;;;;;;0.70;0.45;;;24.60;99.90;;;;;;5033229;28;20047;-57
2022/05/26 06:07:34;;;;;;;1.00;0.50;;;24.80;99.90;;;;;;5033264;28;20029;-55
2022/05/26 06:09:59;;;;;;;2.00;0.50;;;24.90;99.90;;;;;;5034479;28;20048;-56
2022/05/26 06:12:25;;;;;;;0.95;0.50;;;25.00;99.90;;;;;;5033114;28;20034;-54
2022/05/26 06:14:51;;;;;;;0.80;0.43;;;25.00;99.90;;;;;;5033031;28;20025;-57
2022/05/26 06:17:16;;;;;;;0.50;0.30;;;24.90;99.90;;;;;;5034574;28;20029;-57
2022/05/26 06:19:44;;;;;;;1.73;0.40;;;25.00;99.90;;;;;;5034301;28;20018;-55
2022/05/26 06:22:16;;;;;;;1.15;0.43;;;25.00;99.90;;;;;;5033560;28;20044;-55
2022/05/26 06:24:42;;;;;;;1.15;0.55;;;24.80;99.90;;;;;;5032946;28;20029;-56
2022/05/26 06:29:56;;;;;;;1.75;0.57;;;24.40;99.90;;;;;;5034628;28;20036;-57
2022/05/26 06:37:53;;;;;;;0.40;0.30;;;23.60;99.90;;;;;;5034372;28;20491;-54
2022/05/26 06:40:19;;;;;;;5.82;0.55;;;23.60;99.90;;;;;;5033919;28;20029;-57
2022/05/26 06:42:46;;;;;;;3.58;0.70;;;23.60;99.90;;;;;;5033954;28;20029;-57
2022/05/26 06:45:18;;;;;;;1.02;0.43;;;24.00;99.90;;;;;;5032589;28;20025;-55
2022/05/26 06:47:43;;;;;;;2.00;0.50;;;24.30;99.90;;;;;;5033947;28;20021;-56
2022/05/26 06:50:10;;;;;;;0.80;0.30;;;24.40;99.90;;;;;;5032531;28;20032;-55
2022/05/26 06:52:37;;;;;;;0.80;0.40;;;24.90;99.90;;;;;;5032558;28;20053;-55
2022/05/26 06:55:05;;;;;;;2.92;0.50;;;26.20;99.60;;;;;;5032443;28;20025;-57
2022/05/26 06:57:30;;;;;;;1.23;0.50;;;27.30;97.20;;;;;;5033135;28;20025;-57
2022/05/26 06:59:56;;;;;;;2.13;0.57;;;28.20;96.00;;;;;;5032688;28;20037;-58
2022/05/26 07:02:22;;;;;;;0.73;0.50;;;28.50;94.40;;;;;;5032352;28;20021;-57
2022/05/26 07:04:48;;;;;;;1.13;0.40;;;28.20;93.30;;;;;;5032596;28;20125;-57
2022/05/26 07:07:14;;;;;;;1.80;0.65;;;27.70;93.00;;;;;;5032616;28;20099;-57
2022/05/26 07:09:40;;;;;;;1.02;0.43;;;27.10;93.50;;;;;;5033785;28;20049;-57
2022/05/26 07:12:06;;;;;;;0.68;0.40;;;26.70;94.30;;;;;;5032518;28;20112;-57
2022/05/26 07:14:33;;;;;;;2.65;0.70;;;26.60;94.70;;;;;;5032695;28;20025;-54
2022/05/26 07:16:58;;;;;;;2.63;0.60;;;26.80;94.30;;;;;;5032291;28;20391;-57
2022/05/26 07:19:24;;;;;;;1.02;0.60;;;26.90;93.70;;;;;;5033412;28;20018;-55
2022/05/26 07:21:49;;;;;;;3.42;0.60;;;27.10;93.90;;;;;;5032221;28;20033;-57
2022/05/26 07:24:24;;;;;;;1.00;0.55;;;27.00;93.20;;;;;;5032120;28;20021;-56
2022/05/26 07:26:50;;;;;;;2.50;0.70;;;26.70;93.40;;;;;;5033345;28;20018;-57
2022/05/26 07:29:17;;;;;;;4.13;1.80;;;26.70;93.40;;;;;;5033298;28;20032;-58
2022/05/26 07:31:43;;;;;;;2.35;0.80;;;26.60;93.10;;;;;;5032240;28;20025;-55
2022/05/26 07:34:08;;;;;;;2.90;1.20;;;26.60;93.30;;;;;;5032021;28;20183;-56
2022/05/26 07:42:07;;;;;;;1.98;0.75;;;26.80;92.50;;;;;;5033487;28;20079;-57
2022/05/26 07:44:36;;;;;;;1.23;0.55;;;26.50;93.20;;;;;;5033224;28;20032;-57
2022/05/26 07:47:07;;;;;;;3.30;0.50;;;26.50;93.00;;;;;;5031944;28;20033;-56
2022/05/26 07:49:37;;;;;;;7.80;1.08;;;27.40;92.60;;;;;;5032479;28;20076;-57
2022/05/26 07:52:03;;;;;;;3.65;0.80;;;28.60;91.50;;;;;;5033067;28;20033;-58
2022/05/26 07:54:30;;;;;;;1.20;0.55;;;30.40;88.90;;;;;;5032050;28;20022;-58
2022/05/26 07:56:57;;;;;;;1.33;0.50;;;31.60;83.30;;;;;;5032158;28;20026;-58
2022/05/26 07:59:23;;;;;;;3.40;0.80;;;32.20;80.50;;;;;;5031848;28;20033;-58
2022/05/26 08:01:49;;;;;;;2.22;0.60;;;32.80;76.20;;;;;;5031829;28;20025;-58
2022/05/26 08:04:16;;;;;;;1.48;0.60;;;32.40;77.10;;;;;;5032798;28;20056;-57
2022/05/26 08:06:46;;;;;;;6.53;0.75;;;32.60;77.40;;;;;;5033062;28;20030;-57
2022/05/26 08:09:13;;;;;;;3.58;0.98;;;33.60;74.90;;;;;;5036491;28;20025;-58
2022/05/26 08:11:38;;;;;;;6.93;1.08;;;34.40;71.10;;;;;;5035368;28;20510;-58
2022/05/26 08:14:04;;;;;;;3.83;0.82;;;33.50;70.30;;;;;;5035502;28;20034;-57
2022/05/26 08:16:31;;;;;;;3.63;0.95;;;32.30;71.10;;;;;;5035380;28;20024;-57
2022/05/26 08:18:57;;;;;;;2.70;0.93;;;31.90;72.20;;;;;;5035354;28;20060;-57
2022/05/26 08:21:23;;;;;;;2.13;0.73;;;32.70;72.30;;;;;;5036092;28;20029;-58
2022/05/26 08:23:49;;;;;;;2.10;0.90;;;32.70;69.30;;;;;;5036537;28;20032;-58
2022/05/26 08:26:15;;;;;;;1.92;0.70;;;32.20;70.00;;;;;;5036486;28;20025;-58
2022/05/26 08:28:42;;;;;;;2.13;1.08;;;31.70;69.70;;;;;;5036417;28;20029;-58
2022/05/26 08:31:10;;;;;;;1.83;0.77;;;31.20;71.40;;;;;;5036318;28;20030;-58
2022/05/26 08:33:37;;;;;;;3.30;1.10;;;32.00;69.50;;;;;;5035455;28;20467;-58
2022/05/26 08:36:06;;;;;;;3.08;0.93;;;32.80;68.70;;;;;;5035899;28;20025;-57
2022/05/26 08:38:32;;;;;;;3.08;0.80;;;33.60;68.00;;;;;;5035071;28;20028;-58
2022/05/26 08:40:58;;;;;;;3.45;0.82;;;33.40;67.20;;;;;;5035318;28;20026;-58
2022/05/26 08:43:33;;;;;;;4.78;1.05;;;33.20;68.10;;;;;;5036500;28;20017;-58
2022/05/26 08:45:59;;;;;;;2.28;0.80;;;32.80;68.30;;;;;;5034792;28;20022;-57
2022/05/26 08:48:51;;;;;;;1.58;0.65;;;32.30;67.50;;;;;;5036041;28;20072;-57
2022/05/26 08:51:29;;;;;;;3.00;0.90;;;33.40;68.60;;;;;;5031039;28;20124;-56
2022/05/26 08:53:57;;;;;;;1.67;0.82;;;34.50;65.50;;;;;;5034712;28;20075;-58
2022/05/26 08:56:27;;;;;;;2.15;0.70;;;35.10;63.40;;;;;;5035570;28;20021;-58
2022/05/26 08:58:58;;;;;;;1.17;0.90;;;35.40;61.60;;;;;;5035210;28;20017;-57
2022/05/26 09:01:28;;;;;;;2.92;1.08;;;35.90;60.70;;;;;;5034682;28;20033;-58
2022/05/26 09:03:53;;;;;;;3.08;0.75;;;36.80;59.20;;;;;;5035853;28;20035;-57
2022/05/26 09:06:20;;;;;;;2.28;0.93;;;37.80;57.50;;;;;;5034510;28;20120;-56
2022/05/26 09:14:38;;;;;;;1.52;0.98;;;35.70;56.70;;;;;;5035933;28;20023;-57
2022/05/26 09:17:11;;;;;;;2.83;0.90;;;34.50;57.10;;;;;;5035529;28;20105;-58
2022/05/26 09:19:43;;;;;;;4.32;1.00;;;33.10;59.90;;;;;;5035240;28;20258;-57
2022/05/26 09:22:32;;;;;;;1.45;0.82;;;31.70;61.70;;;;;;5035586;28;20029;-58
2022/05/26 09:24:59;;;;;;;2.85;0.95;;;30.90;63.80;;;;;;5034135;28;20075;-58
2022/05/26 09:27:36;;;;;;;2.20;0.95;;;30.50;64.10;;;;;;5035420;28;20052;-57
2022/05/26 09:30:16;;;;;;;4.97;1.20;;;30.90;66.10;;;;;;5034183;28;20022;-58
2022/05/26 09:32:42;;;;;;;1.45;0.80;;;32.00;63.10;;;;;;5034307;28;20051;-58
2022/05/26 09:35:12;;;;;;;2.20;0.90;;;33.30;62.90;;;;;;5034126;28;20383;-57
2022/05/26 09:37:43;;;;;;;4.77;0.90;;;34.40;59.20;;;;;;5034338;28;20075;-58
2022/05/26 09:40:18;;;;;;;3.05;0.80;;;33.70;60.50;;;;;;5035204;28;20331;-57
2022/05/26 09:42:46;;;;;;;3.10;0.70;;;32.50;61.50;;;;;;5035749;28;20021;-57
2022/05/26 09:45:16;;;;;;;2.85;0.85;;;31.30;62.10;;;;;;5034914;28;20029;-56
2022/05/26 09:47:44;;;;;;;1.43;0.90;;;30.40;64.20;;;;;;5033720;28;20048;-57
2022/05/26 09:50:33;;;;;;;3.58;1.00;;;29.70;64.80;;;;;;5034027;28;20037;-57
2022/05/26 09:53:00;;;;;;;2.95;0.82;;;29.30;66.10;;;;;;5032971;28;20112;-57
2022/05/26 09:55:29;;;;;;;3.83;0.93;;;29.00;67.40;;;;;;5033492;28;20022;-57
2022/05/26 09:58:12;;;;;;;0.95;0.68;;;28.80;68.30;;;;;;5035179;28;20079;-57
2022/05/26 10:00:44;;;;;;;2.90;1.38;;;28.90;67.80;;;;;;5033458;28;20029;-57
2022/05/26 10:03:21;;;;;;;2.38;0.85;;;29.60;68.50;;;;;;5033841;28;20360;-57
2022/05/26 10:05:58;;;;;;;1.30;0.68;;;29.70;68.10;;;;;;5033796;28;20064;-57
2022/05/26 10:08:40;;;;;;;2.83;0.77;;;30.00;68.10;;;;;;5034703;28;20116;-58
2022/05/26 10:11:11;;;;;;;3.78;1.00;;;30.00;66.80;;;;;;5033608;28;20496;-57
2022/05/26 10:13:42;;;;;;;1.45;0.90;;;30.00;65.50;;;;;;5034562;28;20100;-57
2022/05/26 10:16:20;;;;;;;3.05;1.17;;;30.80;65.30;;;;;;5033201;28;20368;-58
2022/05/26 10:19:06;;;;;;;2.17;0.88;;;30.80;64.20;;;;;;5033672;28;20021;-57
2022/05/26 10:21:32;;;;;;;3.00;0.95;;;30.40;65.90;;;;;;5033941;28;20027;-57
2022/05/26 10:24:06;;;;;;;3.00;0.82;;;30.40;67.10;;;;;;5034222;28;20104;-55
2022/05/26 10:26:49;;;;;;;2.03;0.80;;;30.50;67.40;;;;;;5033048;28;20025;-57
2022/05/26 10:29:21;;;;;;;2.10;0.90;;;30.50;68.20;;;;;;5034511;28;20021;-58
2022/05/26 10:32:08;;;;;;;2.58;0.90;;;30.80;66.90;;;;;;5031985;28;20022;-57
2022/05/26 10:34:39;;;;;;;4.53;0.88;;;30.30;66.40;;;;;;5034562;28;20109;-57
2022/05/26 10:37:34;;;;;;;2.33;0.65;;;30.00;67.90;;;;;;5034496;28;20044;-57
2022/05/26 10:40:05;;;;;;;4.45;1.13;;;29.60;69.00;;;;;;5034486;28;20119;-57
2022/05/26 10:42:38;;;;;;;3.25;0.68;;;29.00;68.90;;;;;;5033975;28;20032;-57
2022/05/26 10:45:29;;;;;;;1.88;1.17;;;28.70;69.60;;;;;;5033796;28;20052;-57
2022/05/26 10:47:58;;;;;;;4.50;1.15;;;28.20;71.70;;;;;;5032573;28;20025;-56
2022/05/26 10:50:27;;;;;;;4.28;1.15;;;27.80;72.60;;;;;;5032566;28;20037;-57
2022/05/26 10:53:16;;;;;;;4.80;2.20;;;27.50;72.50;;;;;;5033809;28;20028;-56
2022/05/26 10:55:55;;;;;;;1.88;1.20;;;27.10;73.70;;;;;;5005785;28;20029;-56
2022/05/26 10:58:34;;;;;;;3.33;1.08;;;26.70;73.60;;;;;;5033447;28;20021;-55
2022/05/26 11:01:22;;;;;;;2.42;0.90;;;26.70;75.00;;;;;;5032932;28;20507;-57
2022/05/26 11:03:53;;;;;;;2.17;1.10;;;26.50;75.20;;;;;;5032947;28;20025;-57
2022/05/26 11:06:30;;;;;;;3.88;1.20;;;26.20;75.60;;;;;;5032433;28;20039;-57
2022/05/26 11:09:07;;;;;;;1.85;0.85;;;25.90;75.40;;;;;;5033952;28;20059;-56
2022/05/26 11:11:37;;;;;;;3.50;1.08;;;25.90;77.00;;;;;;5033107;28;20048;-57
2022/05/26 11:17:52;;;;;;;2.90;0.80;;;26.00;77.00;;;;;;4973203;28;20097;-56
2022/05/26 11:20:45;;;;;;;4.43;1.02;;;26.40;76.60;;;;;;4956463;28;20027;-57
2022/05/26 11:23:16;;;;;;;1.95;0.80;;;26.70;76.60;;;;;;5029689;28;20064;-55
2022/05/26 11:25:46;;;;;;;;;;;26.90;75.60;;;;;;5033828;28;20029;-57
2022/05/26 11:28:34;;;;;;;2.97;0.80;;;27.00;75.70;;;;;;5032149;28;20329;-55
2022/05/26 11:37:23;;;;;;;3.42;1.10;;;27.40;75.20;;;;;;5033808;28;20024;-56
2022/05/26 11:39:53;;;;;;;2.45;0.90;;;27.30;74.30;;;;;;5001706;28;20037;-57
2022/05/26 11:42:37;;;;;;;2.15;0.70;;;27.20;75.70;;;;;;5033970;28;20116;-57
2022/05/26 11:45:11;;;;;;;1.67;0.80;;;26.90;75.90;;;;;;5037540;28;20053;-55
2022/05/26 11:48:01;;;;;;;3.67;0.77;;;26.80;74.90;;;;;;5036029;28;20029;-56
2022/05/26 11:50:36;;;;;;;3.85;1.20;;;26.80;74.30;;;;;;5036018;28;20383;-56
2022/05/26 11:53:05;;;;;;;1.98;0.85;;;26.50;74.50;;;;;;5036114;28;20026;-55
2022/05/26 11:55:52;;;;;;;2.05;0.88;;;26.20;76.00;;;;;;5037132;28;20092;-54
2022/05/26 11:58:32;;;;;;;2.53;1.00;;;25.90;77.10;;;;;;5037143;28;20029;-55
2022/05/26 12:01:31;;;;;;;3.00;1.42;;;25.70;77.00;;;;;;5036910;28;20084;-57
2022/05/26 12:03:57;;;;;;;2.92;0.95;;;25.70;79.20;;;;;;5037889;28;20415;-56
2022/05/26 12:06:52;;;;;;;2.20;0.90;;;25.80;77.00;;;;;;5038350;28;20036;-57
2022/05/26 12:09:30;;;;;;;3.03;1.00;;;26.10;76.30;;;;;;5037929;28;20089;-56
2022/05/26 12:12:07;;;;;;;3.17;1.10;;;26.10;75.80;;;;;;5036671;28;20022;-56
2022/05/26 12:14:50;;;;;;;3.28;1.10;;;26.20;75.30;;;;;;5036548;28;20032;-55
2022/05/26 12:17:33;;;;;;;3.75;1.25;;;26.00;76.90;;;;;;5037494;28;20024;-55
2022/05/26 12:20:10;;;;;;;2.65;0.95;;;25.70;78.30;;;;;;5037921;28;20018;-57
2022/05/26 12:22:47;;;;;;;3.60;1.15;;;25.40;78.60;;;;;;5037043;28;20021;-57
2022/05/26 12:25:33;;;;;;;2.58;0.90;;;25.10;78.90;;;;;;5036393;28;20026;-56
2022/05/26 12:28:04;;;;;;;3.67;1.00;;;24.90;78.00;;;;;;5036127;28;20022;-57
2022/05/26 12:30:44;;;;;;;1.45;0.70;;;24.70;78.40;;;;;;5035254;28;20056;-56
2022/05/26 12:33:20;;;;;;;3.75;0.80;;;24.70;81.70;;;;;;5036634;28;20034;-56
2022/05/26 12:36:07;;;;;;;3.42;0.90;;;24.70;80.30;;;;;;5036003;28;20025;-54
2022/05/26 12:39:10;;;;;;;2.17;0.85;;;24.70;78.70;;;;;;5036660;28;20022;-55
2022/05/26 12:41:58;;;;;;;0.93;0.80;;;25.00;80.20;;;;;;5035384;28;20395;-54
2022/05/26 12:44:51;;;;;;;2.92;1.20;;;24.90;80.10;;;;;;5036170;28;20025;-57
2022/05/26 12:47:38;;;;;;;2.40;1.00;;;24.90;79.00;;;;;;5036515;28;20112;-56
2022/05/26 12:50:20;;;;;;;1.73;0.88;;;25.00;79.60;;;;;;5034673;28;20052;-57
2022/05/26 12:53:05;;;;;;;1.67;0.85;;;25.10;79.10;;;;;;5034825;28;20030;-56
2022/05/26 12:55:57;;;;;;;3.60;1.17;;;25.10;77.90;;;;;;5033876;28;20026;-57
2022/05/26 12:58:34;;;;;;;3.08;1.08;;;25.10;78.30;;;;;;5034695;28;20018;-56
2022/05/26 13:01:03;;;;;;;2.33;0.70;;;25.00;79.00;;;;;;5035957;28;20056;-57
2022/05/26 13:03:39;;;;;;;1.80;0.88;;;24.90;79.00;;;;;;5034927;28;20104;-55
2022/05/26 13:06:30;;;;;;;1.75;0.82;;;25.00;78.50;;;;;;5034396;28;20039;-57
2022/05/26 13:09:00;;;;;;;;;;;25.30;78.20;;;;;;5035866;28;20021;-56
2022/05/26 13:11:33;;;;;;;2.72;1.05;;;25.40;77.60;;;;;;5034773;28;19951;-58
2022/05/26 13:14:07;;;;;;;2.08;0.82;;;25.30;78.80;;;;;;5035848;28;20068;-57
2022/05/26 13:16:37;;;;;;;2.30;0.90;;;25.30;80.50;;;;;;5034456;28;20031;-56
2022/05/26 13:19:10;;;;;;;2.33;0.90;;;25.50;80.60;;;;;;5034286;28;20021;-56
2022/05/26 13:21:37;;;;;;;2.72;0.65;;;25.30;78.70;;;;;;5035562;28;20083;-57
2022/05/26 13:24:03;;;;;;;2.55;0.77;;;25.20;80.70;;;;;;5035559;28;20389;-57
2022/05/26 13:26:29;;;;;;;2.55;1.02;;;25.20;79.90;;;;;;5034220;28;20031;-57
2022/05/26 13:28:59;;;;;;;3.50;0.80;;;25.10;80.40;;;;;;5034706;28;20045;-57
2022/05/26 13:34:12;;;;;;;1.42;1.00;;;25.10;79.80;;;;;;5035580;28;20109;-57
2022/05/26 13:36:45;;;;;;;2.03;0.85;;;25.10;80.00;;;;;;5034383;28;20025;-54
2022/05/26 13:39:14;;;;;;;2.72;0.80;;;25.10;80.50;;;;;;5035341;28;20029;-56
2022/05/26 13:41:43;;;;;;;4.25;0.88;;;24.80;81.40;;;;;;5033873;28;20037;-53
2022/05/26 13:44:13;;;;;;;0.88;0.60;;;24.70;82.40;;;;;;5034948;28;20056;-51
2022/05/26 13:46:43;;;;;;;1.25;1.00;;;24.70;82.30;;;;;;5035144;28;20030;-52
2022/05/26 13:49:32;;;;;;;4.25;1.10;;;24.80;81.10;;;;;;5033839;28;20060;-56
2022/05/26 13:52:09;;;;;;;3.58;1.10;;;25.00;81.60;;;;;;5034834;28;20372;-54
2022/05/26 13:54:52;;;;;;;3.80;1.05;;;25.00;79.10;;;;;;5033691;28;20025;-55
2022/05/26 13:57:29;;;;;;;2.22;0.82;;;25.10;79.30;;;;;;5034954;28;20033;-54
2022/05/26 14:00:24;;;;;;;2.53;1.00;;;25.20;80.00;;;;;;5033511;28;20028;-55